Aérodrome :
LOGIN :

S'inscrire | Disclaimer

   EN    FR    IT 

 










Légende :    VFR   VFR Marginal   IFR   IFR Intensif   IFR Très Intensif
Visi : 
Plafond : 
>= 8 km
>= 3000ft
5 à 8 km
1000 à 3000 ft
1500m à 5 km
500 à 1000 ft
800 à 1500m
200 à 500 ft
< 800m
< 200 ft
Symboles :   Orages  Brouillard  Fortes neiges  Fortes précipitations  Vent > 20 kt
SIGMETs :   Divers  Orages  Givrage  Turbulence  Onde Orograph.  Cendres Volcan.






- Altitude de l'aérodrome : 16 ft
- Code IATA : AAE


DABB - Annaba-Rabah Bitat

DERNIER METAR :
  • 221900Z 27003KT 9999 FEW026 11/10 Q1032

METARs EXPIRÉS :
  • 221830Z 36007KT 9999 FEW026 13/10 Q1031
  • 221800Z 36008KT 9999 FEW026 14/10 Q1031
  • 221730Z 36009KT 9999 SCT023 14/10 Q1031
  • 221700Z 36009KT 9999 SCT023 15/10 Q1031

TAF TAF DABB
Valide du 22 à 18h jusqu'au 23 à 18h UTC


221700Z 2218/2318 33014KT 9999 FEW023 SCT033
BECMG 2219/2221 22008KT
TEMPO 2300/2309 2000 BR SCT008



MET'MAP, la Météo Aéronautique d'un coup d'oeil ! - Copyright ORBIFLY Décembre 2007 - Disclaimer

ORBIFLY MET'MAP TEAM :

Programmation & Développement : Alexandra Zaïnal
Sur une idée originale de : Baudouin d'Aumeries
Assistance à la programmation : Marc-Olivier Méhu
Soutien technique & logistique : Manuel Goepfert

Contact : metmap@orbifly.com




SOURCES & CREDITS :

   NOAA